KVJI/VJI METAR and TAF weather

Enter ICAO airport designator
Station Type Date Time Source
KVJI METAR 2022/06/28 08:15 UTC NOAA

KVJI 280815Z AUTO 00000KT 10SM CLR 14/12 A3023 RMK AO2 T01360116


Station Type Date Time Source
KVJI Decoded METAR 2022/06/28 08:15 UTC NOAA

Abingdon, VA, United States (KVJI) 36-41N 082-02W
Jun 28, 2022 - 04:15 AM EDT / 2022.06.28 0815 UTC
Wind: Calm:0
Visibility: 10 mile(s):0
Sky conditions: clear
Temperature: 56.5 F (13.6 C)
Dew Point: 52.9 F (11.6 C)
Relative Humidity: 87%
Pressure (altimeter): 30.23 in. Hg (1023 hPa)
ob: KVJI 280815Z AUTO 00000KT 10SM CLR 14/12 A3023 RMK AO2 T01360116
cycle: 8

Station Type Date Time Source
KVJI TAF UTC NOAA

Error!

Example: see airport list